x

8726724 - Clearwater Beach, Fl (cwbf1) Weather Station

2:54am - Mon 3rd Aug 2015 All times are EDT. -4 hours from GMT.

  • Wind
    21mph, 24mph gusts
  • Sea Temp 81°f
  • Air Temp 80°f
  • Sea Pressure 1011mb
  • 8726724 - Clearwater Beach, Fl
  • 8726724 - Clearwater Beach, Fl

More Historic Weather Station data

Upgrade to MSW Pro to gain access to the past 30 days of data for over 8000 Wavebouys and Weather Stations around the globe.

Join Pro

Comparision Forecast

View Surf forecast
   
Mon 08/03 2:54am 21 24 mph 1011mb 81f 80f
2:48am 23 28 mph 1011mb 81f 79f
2:42am 24 30 mph 1011.1mb 81f 80f
2:36am 23 28 mph 1011.2mb 81f 81f
2:30am 23 30 mph 1011.3mb 81f 81f
2:24am 26 30 mph 1011.2mb 81f 80f
2:18am 26 30 mph 1011.2mb 81f 80f
2:12am  -  mph 1011.4mb 81f 80f
2:06am 28 30 mph 1011.6mb 81f 80f
2:00am  -  mph 1011.9mb 81f 80f
1:54am 24 26 mph 1012.1mb 81f 80f
1:48am 23 29 mph 1012.2mb 81f 80f
1:42am 25 29 mph 1012.2mb 81f 79f
1:36am 26 30 mph 1012.2mb 81f 79f
1:30am 26 29 mph 1012.3mb 81f 79f
1:24am 23 28 mph 1012.4mb 81f 79f
1:18am 24 28 mph 1012.4mb 81f 79f
1:12am 25 29 mph 1012.4mb 81f 78f
1:06am 23 28 mph 1012.6mb 81f 78f
1:00am 23 26 mph 1012.7mb 81f 78f
12:54am 22 25 mph 1012.9mb 81f 78f
12:48am 22 25 mph - - -
12:42am 22 24 mph 1013.1mb 82f 78f
12:36am 23 25 mph 1013.1mb 82f 78f
12:30am 21 25 mph 1013.2mb 82f 78f
12:24am 22 26 mph 1013.1mb 82f 78f
12:18am 24 28 mph 1013.1mb 82f 78f
12:12am 22 26 mph 1013mb 82f 78f
12:06am 24 28 mph 1013mb 82f 78f
12:00am 24 28 mph 1013.1mb 82f 79f
Sun 08/02 11:54pm 25 28 mph 1013mb 82f 79f
11:48pm 23 25 mph 1013.1mb 82f 79f
11:42pm 21 24 mph 1013.2mb 82f 79f
11:36pm 21 25 mph 1013.3mb 82f 79f
11:30pm 21 25 mph 1013.3mb 82f 79f
11:24pm 22 24 mph 1013.3mb 82f 79f
11:18pm 21 23 mph 1013.3mb 82f 80f
11:12pm 23 25 mph 1013.3mb 82f 79f
11:06pm 21 25 mph 1013.3mb 82f 79f
11:00pm 22 25 mph 1013.3mb 81f 79f
10:54pm 23 26 mph 1013.3mb 81f 80f
10:48pm 22 25 mph 1013.2mb 81f 80f
10:42pm 23 29 mph 1013.2mb 81f 81f
10:36pm 26 29 mph 1013.2mb 81f 81f
10:30pm 24 26 mph 1013.1mb 81f 81f
10:24pm 23 28 mph 1013.1mb 81f 82f
10:18pm 25 29 mph 1012.9mb 81f 81f
10:12pm 23 26 mph 1012.7mb 81f 82f
10:06pm 22 25 mph 1012.8mb 81f 82f
10:00pm 20 26 mph 1012.8mb 81f 82f
9:48pm 21 26 mph 1012.8mb - -
9:42pm 20 25 mph 1012.7mb 81f 82f
9:36pm 21 23 mph 1012.6mb 81f 82f
9:30pm 23 25 mph 1012.5mb 81f 82f
9:24pm 23 26 mph 1012.4mb 81f 82f
9:18pm 21 24 mph 1012.4mb 81f 82f
9:12pm 22 24 mph 1012.5mb 81f 82f
9:06pm 21 26 mph 1012.8mb 81f 82f
9:00pm 23 26 mph 1012.8mb 81f 82f
8:54pm 23 26 mph 1012.8mb 81f 82f
8:48pm 22 26 mph 1012.7mb 81f 82f
8:42pm 22 26 mph 1012.8mb 81f 82f
8:36pm 22 24 mph 1012.7mb 81f 82f
8:30pm 22 24 mph 1012.6mb 81f 82f
8:24pm 22 24 mph 1012.5mb 81f 82f
8:18pm 22 25 mph 1012.6mb 81f 82f
8:12pm 23 28 mph 1012.7mb 81f 82f
8:06pm 22 24 mph 1012.8mb 81f 82f
8:00pm 23 26 mph 1012.7mb 81f 82f
7:54pm 22 26 mph 1012.4mb 81f 82f
7:42pm 21 26 mph 1012.1mb 81f 82f
7:36pm 24 28 mph 1012.1mb 81f 82f
7:30pm 24 28 mph 1012.1mb 81f 82f
7:24pm 22 25 mph 1012.3mb 81f 82f
7:18pm 24 26 mph 1012.5mb 81f 82f
7:12pm 23 28 mph 1012.6mb 81f 82f
7:06pm 18 23 mph 1012.6mb 81f 82f
7:00pm 22 28 mph 1012.6mb 81f 82f
6:54pm 23 28 mph 1012.4mb 81f 82f
6:48pm 26 29 mph 1012.4mb - -
6:42pm 23 28 mph 1012.5mb 81f 81f
6:36pm 22 30 mph 1012.6mb 81f 81f
6:30pm 24 29 mph 1012.6mb 81f 81f
6:24pm 29 31 mph 1012.6mb 81f 81f
6:18pm 26 29 mph 1012.6mb 81f 81f
6:12pm 22 30 mph 1012.6mb 81f 81f
6:06pm 16 21 mph 1012.7mb 81f 79f
6:00pm 17 22 mph 1012.9mb 81f 78f
5:54pm 22 29 mph 1013mb 82f 77f
5:48pm 26 31 mph 1013.1mb 82f 76f
5:42pm 30 33 mph 1013mb 82f 77f
5:36pm 28 33 mph 1013mb 82f 78f
5:30pm 28 32 mph 1012.9mb 82f 79f
5:24pm 25 31 mph 1013mb 82f 80f
5:18pm 25 30 mph 1013mb 82f 81f
5:12pm 22 29 mph 1013mb 82f 82f
5:06pm 26 31 mph 1013mb 82f 82f
5:00pm 25 32 mph 1013mb 82f 82f
4:54pm 28 32 mph 1013mb 82f 82f
4:48pm 30 33 mph 1012.9mb 82f 82f
4:42pm 29 33 mph 1012.9mb 82f 82f
4:36pm 28 33 mph 1012.9mb 82f 82f
4:30pm 30 36 mph 1012.8mb 82f 82f
4:24pm 30 39 mph 1012.7mb 82f 82f
4:18pm 32 43 mph 1012.8mb 82f 82f
4:12pm 30 37 mph 1012.8mb 82f 82f
4:06pm 32 40 mph 1012.8mb 82f 82f
4:00pm 36 40 mph 1012.9mb 82f 82f
3:54pm 33 38 mph 1013mb 82f 82f
3:48pm 33 39 mph 1013.1mb 82f 82f
3:42pm 30 33 mph 1013.2mb 82f 82f
3:36pm 30 34 mph 1013.2mb 82f 82f
3:30pm 26 30 mph 1013.3mb 82f 82f
3:24pm 26 32 mph 1013.2mb 82f 82f
3:18pm 25 31 mph 1013.2mb 82f 82f
3:12pm 29 34 mph 1013.4mb 82f 82f
3:06pm 29 34 mph 1013.4mb 82f 82f
3:00pm 29 34 mph 1013.6mb 82f 82f
2:54pm 24 30 mph 1013.6mb 82f 82f
2:48pm 24 29 mph 1013.8mb 82f 81f
2:42pm 24 29 mph 1013.9mb 82f 81f
2:36pm 24 28 mph 1014mb 82f 81f
2:30pm 24 30 mph 1014mb 82f 81f
2:24pm 29 33 mph 1014.1mb 82f 81f
2:18pm 32 37 mph 1014mb 82f 81f
2:06pm 29 34 mph 1014mb 82f 81f
2:00pm 28 32 mph 1014mb 82f 81f
1:54pm 29 33 mph 1014.1mb 82f 82f
1:48pm 28 34 mph 1014.2mb 82f 82f
1:42pm 32 36 mph 1014.2mb 82f 82f
1:36pm 30 33 mph 1014.2mb 82f 82f
1:24pm 29 36 mph 1014.1mb 82f 82f
1:06pm 32 36 mph 1013.9mb 82f 83f
1:00pm 30 33 mph 1014mb 82f 83f
12:54pm 29 32 mph 1014mb 82f 83f
12:48pm 29 32 mph 1013.9mb 82f 83f
12:42pm 26 32 mph 1013.9mb 82f 83f
12:36pm 25 28 mph 1013.9mb 82f 83f
12:30pm 22 25 mph 1013.8mb 82f 82f
12:24pm 22 25 mph 1013.8mb 82f 82f
12:18pm 21 25 mph - - 82f
12:12pm 22 24 mph 1013.8mb 82f 81f
12:06pm 23 29 mph 1013.8mb 82f 81f
12:00pm 21 28 mph 1013.8mb 82f 81f
11:54am 22 33 mph 1013.9mb 82f 80f
11:48am 28 32 mph 1013.8mb 81f -
11:42am 24 29 mph 1014mb 81f 80f
11:36am 16 20 mph 1013.7mb 81f 80f
11:30am 17 23 mph 1013.7mb 81f 80f
11:24am 18 22 mph 1013.8mb 81f 80f
11:18am 18 23 mph 1013.8mb 81f 80f
11:12am 15 20 mph 1013.8mb 81f 78f
11:06am 15 21 mph 1013.8mb 81f 78f
11:00am 18 22 mph 1013.7mb 81f 77f
10:54am 18 24 mph 1013.7mb 81f 76f
10:48am 22 29 mph - - -
10:42am 25 32 mph 1013.7mb 81f 77f
10:36am 25 37 mph 1013.4mb 81f 78f
10:30am 32 37 mph 1013.1mb 81f 78f
10:24am 16 22 mph 1013.2mb 81f 82f
10:18am 20 22 mph 1013.2mb 81f -
10:12am 20 22 mph 1013.2mb 81f 83f
10:06am 20 24 mph 1013.1mb 81f 83f
9:54am 20 23 mph 1012.9mb 81f 82f
9:48am 21 23 mph 1012.9mb 81f 82f
9:42am 20 23 mph 1012.9mb 81f 82f
9:36am 18 23 mph 1012.8mb 81f 82f
9:30am 20 22 mph 1012.7mb 81f 82f
9:24am 17 20 mph 1012.8mb 81f 80f
9:18am 18 21 mph 1012.9mb 81f 79f
9:12am 13 20 mph 1013mb 81f 77f
9:06am 15 44 mph 1013.1mb 81f 75f
9:00am 28 45 mph 1013.2mb 81f 79f
8:54am 18 24 mph 1013.1mb 81f 82f
8:48am 16 20 mph 1013mb 81f 82f
8:42am 16 18 mph 1012.9mb 81f 82f
8:36am 16 20 mph 1012.9mb 81f 82f
8:30am 17 18 mph 1012.9mb 81f 82f
8:24am 16 18 mph 1012.9mb 81f 82f
8:18am 15 17 mph 1013mb 81f 82f
8:12am 16 18 mph 1012.9mb 81f 82f
8:06am 16 17 mph 1012.9mb 81f 82f
7:54am 16 20 mph 1012.7mb 81f 82f
7:48am 18 21 mph 1012.7mb 81f -
7:42am 18 21 mph 1012.7mb 81f 82f
7:36am 20 23 mph 1012.7mb 81f 82f
7:30am 20 22 mph 1012.6mb 81f 82f
7:24am 20 21 mph 1012.6mb 81f 82f
7:18am 20 23 mph 1012.7mb 81f 82f
7:12am 22 25 mph 1012.6mb 81f 82f
7:00am 21 23 mph 1012.7mb 81f 83f
6:54am 21 23 mph 1012.6mb 81f 83f
6:48am 21 25 mph 1012.4mb 81f 83f
6:42am 23 24 mph 1012.2mb 81f 82f
6:36am 22 24 mph 1012.2mb 81f 82f
6:30am 22 26 mph 1012.1mb 81f 82f
6:24am 22 25 mph 1012.1mb 81f 82f
6:18am 23 26 mph 1012.1mb 81f 82f
6:12am 24 29 mph 1012mb 81f 82f
5:54am 23 28 mph 1012mb 81f 82f
5:48am 25 29 mph 1012mb 82f 82f
5:42am 26 30 mph 1011.9mb 82f 82f
5:36am 25 29 mph 1011.9mb 82f 82f
5:30am 25 29 mph 1011.7mb 82f 82f
5:24am 24 31 mph 1011.5mb 82f 82f
5:18am 23 26 mph 1011.5mb 82f -
5:12am 21 26 mph 1011.5mb 82f 82f
5:06am 22 28 mph 1011.5mb 82f 82f
5:00am 26 31 mph 1011.4mb 82f 82f
4:54am 25 28 mph 1011.4mb 82f 82f
4:48am 26 31 mph 1011.5mb 82f 82f
4:42am 23 28 mph 1011.6mb 82f 82f
4:36am 25 28 mph 1011.7mb 82f 81f
4:30am 24 29 mph 1011.8mb 82f 81f
4:24am 25 29 mph 1011.9mb 82f 80f
4:18am 26 30 mph 1012mb 82f 80f
4:12am 26 31 mph 1012.2mb 82f 79f
4:06am 30 34 mph 1012.4mb 82f 79f
4:00am 29 33 mph 1012.4mb 82f 79f
3:54am 29 33 mph 1012.6mb 82f 78f
3:42am 30 33 mph 1012.9mb 82f 78f
3:36am 29 32 mph 1013.1mb 82f 78f
3:30am 30 36 mph 1013.2mb 82f 76f
3:24am 34 40 mph 1013.1mb 82f 75f
3:18am 37 43 mph 1013.1mb 82f 76f
3:12am 38 45 mph 1013.1mb 82f 76f
3:06am 33 39 mph 1013.3mb 82f 77f
3:00am 20 22 mph 1013.4mb 82f 78f
2:54am 17 20 mph 1013.2mb 82f 78f
2:48am 16 20 mph 1013.3mb 82f 78f
2:42am 16 22 mph 1013.1mb 82f -
2:36am 14 17 mph 1013.1mb 82f -
2:30am 11 15 mph 1013.3mb 82f 76f
2:24am 11 15 mph 1013.4mb 82f 76f
2:18am 10 15 mph 1013.3mb 82f 75f
2:12am 11 15 mph 1013.3mb 83f 75f
2:06am 9 14 mph 1013.4mb 83f 75f
2:00am 9 14 mph 1013.5mb 83f 75f
1:54am 11 14 mph 1013.5mb 83f 75f
1:48am 11 14 mph 1013.6mb 83f -
1:42am 10 14 mph 1013.7mb 83f 75f
1:36am 9 14 mph 1013.7mb 83f 75f
1:30am 9 13 mph 1013.8mb 83f 75f
1:24am 9 13 mph 1014mb 83f 75f
1:18am 10 15 mph 1014mb 83f 75f
1:12am 8 14 mph 1014.2mb 83f 75f
1:06am 9 14 mph 1014.2mb 83f 75f
1:00am 11 14 mph 1014.3mb 82f 75f
12:54am 10 14 mph 1014.2mb 82f 74f
12:48am 10 13 mph 1014.4mb 82f 74f
12:42am 9 15 mph 1014.5mb 82f 75f
12:36am 11 15 mph 1014.6mb 82f 74f
12:30am 9 15 mph 1014.7mb 82f 74f
12:24am 10 13 mph 1014.6mb 82f 74f
12:18am 10 16 mph 1014.6mb 82f 74f
12:12am 11 14 mph 1014.6mb 82f 75f
12:06am 9 13 mph 1014.6mb 82f 75f
12:00am 7 11 mph 1014.6mb 82f 75f
Sat 08/01 11:54pm 11 14 mph 1014.7mb 82f 75f
11:48pm 7 9 mph 1014.7mb 82f -
11:42pm 7 10 mph 1014.8mb 82f -
11:36pm 8 10 mph 1014.8mb 82f -
11:30pm 8 10 mph 1014.8mb 82f 75f
11:24pm 8 11 mph 1014.9mb 82f 75f
11:18pm 10 15 mph 1014.9mb 82f 76f
11:12pm 17 20 mph 1014.9mb 82f 78f
11:06pm 17 18 mph 1014.8mb 82f 79f
11:00pm 14 16 mph 1014.8mb 82f 78f
10:48pm 14 15 mph 1014.7mb 82f 76f
10:42pm 11 14 mph 1014.7mb 82f 76f
10:36pm 13 17 mph 1014.7mb 82f 76f
10:30pm 14 17 mph 1014.8mb 82f 76f
10:24pm 16 25 mph 1014.7mb 82f 75f
10:18pm 23 29 mph - 82f -
10:12pm 28 32 mph 1014.7mb 82f 74f
10:06pm 28 34 mph 1014.5mb 82f 76f
10:00pm 30 37 mph 1014.4mb 82f 78f
9:48pm  -  mph 1014.1mb 82f -
9:42pm 21 29 mph 1013.8mb 82f 80f
9:36pm 16 17 mph 1013.6mb 82f 80f
9:30pm 14 17 mph 1013.4mb 82f 80f
9:24pm 14 22 mph 1013.4mb 82f 79f
9:18pm 20 23 mph 1013.4mb 82f 80f
9:12pm 21 23 mph 1013.5mb 82f 79f
9:06pm 20 24 mph 1013.6mb 82f 78f
9:00pm 23 28 mph 1013.8mb 82f 78f
8:54pm 25 29 mph 1013.9mb 82f 78f
8:48pm 25 28 mph 1013.9mb 82f 79f
8:42pm 23 26 mph 1013.7mb 82f 79f
8:36pm 22 25 mph 1013.8mb 82f 79f
8:30pm 23 28 mph 1013.8mb 82f 79f
8:24pm 25 30 mph 1013.7mb 82f 79f
8:12pm 21 25 mph 1013.5mb 82f 79f
8:06pm 23 26 mph 1013.4mb 82f 79f
8:00pm 21 24 mph 1013.4mb 82f 79f
7:54pm 21 26 mph 1013.4mb 82f 78f
7:48pm 22 24 mph 1013.5mb - -
7:42pm 20 22 mph 1013.4mb 82f 78f
7:36pm 18 23 mph 1013.4mb 82f 78f
7:30pm 20 28 mph 1013.5mb 82f 78f
7:24pm 25 29 mph 1013.5mb 82f 78f
7:18pm 24 29 mph 1013.6mb - -
7:12pm 22 26 mph 1013.6mb 82f 78f
7:06pm 24 32 mph 1013.6mb 82f 77f
7:00pm 22 29 mph 1013.6mb 82f 77f
6:54pm 24 30 mph 1013.7mb 82f 77f
6:48pm 29 37 mph 1013.8mb - -
6:42pm 33 36 mph 1013.3mb 82f 78f
6:36pm 32 38 mph 1013.2mb 82f 79f
6:30pm 31 37 mph 1013.3mb 82f 79f
6:24pm 20 22 mph 1013.1mb 82f 83f
6:18pm 15 16 mph 1013.1mb 82f 82f
6:12pm 10 16 mph 1013.1mb 82f 82f
6:06pm 14 15 mph 1013.1mb 82f 81f
6:00pm 14 15 mph 1013.2mb 82f 81f
5:54pm 13 14 mph 1013.3mb 82f 81f
5:48pm 11 15 mph 1013.3mb 82f 81f
5:42pm 13 14 mph 1013.4mb 82f 81f
5:36pm 11 14 mph 1013.4mb 82f 81f
5:30pm 13 16 mph 1013.4mb 82f 81f
5:24pm 13 16 mph 1013.5mb 83f 80f
5:18pm 10 14 mph 1013.4mb 83f -
5:12pm 9 13 mph 1013.5mb 83f 80f
5:06pm 10 13 mph 1013.5mb 83f 80f
5:00pm 8 10 mph 1013.5mb 83f 80f
4:54pm 8 10 mph 1013.5mb 82f 80f
4:48pm 9 13 mph 1013.6mb 82f -
4:42pm 11 14 mph 1013.8mb 82f 79f
4:36pm 13 15 mph 1013.8mb 83f 79f
4:30pm 13 17 mph 1013.9mb 83f 79f
4:24pm 14 17 mph 1013.9mb 83f 79f
4:18pm 17 20 mph 1013.9mb 83f -
4:12pm 18 22 mph 1014mb 83f 79f
4:06pm 20 23 mph 1014.2mb 83f 79f
4:00pm 18 23 mph 1014.4mb 83f 78f
3:54pm 22 25 mph 1014.4mb 83f 78f
3:48pm 22 26 mph 1014.5mb 83f 79f
3:42pm 23 30 mph 1014.6mb 83f 79f
3:30pm 26 33 mph 1014.4mb 83f 78f
3:24pm 28 32 mph 1014.4mb 83f 77f
3:18pm 29 36 mph 1014.5mb 83f 77f
3:12pm 29 39 mph 1014.6mb 83f 77f
3:06pm 33 43 mph 1014.7mb 83f 77f
3:00pm 32 44 mph 1014.8mb 83f 77f
2:48pm 36 43 mph 1014.7mb 83f 77f
2:42pm 36 39 mph 1014.7mb 83f 76f
2:36pm 32 43 mph 1014.8mb 83f 76f
2:24pm 34 40 mph 1014.7mb 83f 76f
2:18pm 29 40 mph 1014.7mb 83f 80f
2:12pm 17 20 mph 1014.3mb 83f 83f
2:06pm 14 17 mph 1014.3mb 83f 82f
2:00pm 15 18 mph 1014.3mb 83f 82f
1:54pm 13 16 mph 1014.3mb 83f 81f
1:48pm 8 13 mph 1014.4mb 83f 79f
1:42pm 11 13 mph 1014.5mb 83f 80f
1:36pm 11 13 mph 1014.6mb 83f 80f
1:30pm 11 14 mph 1014.6mb 83f 80f
1:24pm 10 14 mph 1014.6mb 83f 80f
1:18pm 14 20 mph 1014.7mb 83f 80f
1:12pm 21 28 mph 1014.8mb 83f 78f
1:06pm 28 36 mph 1014.9mb 83f 79f
1:00pm 33 39 mph 1015.1mb 83f 79f
12:54pm 28 36 mph 1015.1mb 83f 80f
12:48pm 22 24 mph 1015mb 83f 81f
12:42pm 17 22 mph 1014.9mb 83f 81f
12:36pm 20 23 mph 1014.5mb 83f 81f
12:30pm 20 22 mph 1014.3mb 83f 82f
12:24pm 17 20 mph 1014.2mb 83f 81f
12:18pm 11 16 mph 1014.5mb 83f 79f
12:12pm 10 15 mph 1014.9mb 83f 77f
12:06pm 15 22 mph 1015.2mb 83f 77f
12:00pm 16 21 mph 1015.2mb 83f 77f
11:54am 14 21 mph 1015.2mb 83f 76f
11:48am 21 24 mph 1015.3mb 83f 76f
11:42am 23 32 mph 1015.4mb 83f 77f
11:36am 30 38 mph 1015.4mb 83f 76f
11:30am 37 44 mph 1015.2mb 83f 76f
11:24am 23 25 mph 1014.6mb 83f 84f
11:18am 21 24 mph 1014.5mb 83f 84f
11:12am 23 26 mph 1014.5mb 83f 84f
11:06am 21 24 mph 1014.4mb 83f 84f
11:00am 21 24 mph 1014.5mb 83f 84f
10:54am 18 22 mph 1014.5mb 83f 84f
10:48am 20 22 mph 1014.4mb 83f 84f
10:42am 20 22 mph 1014.4mb 83f 84f
10:36am 18 22 mph 1014.5mb 83f 84f
10:30am 15 22 mph 1014.5mb 83f 84f
10:24am 20 22 mph 1014.4mb 83f 84f
10:12am 20 23 mph 1014.4mb 83f 83f
10:06am 20 23 mph 1014.4mb 83f 84f
10:00am 20 21 mph 1014.4mb 83f 83f
9:54am 18 22 mph 1014.4mb 83f 83f
9:48am 18 23 mph 1014.4mb 83f 83f
9:42am 18 23 mph 1014.3mb 83f 83f
9:36am 21 23 mph 1014.3mb 83f 83f
9:30am 20 23 mph 1014.2mb 83f 84f
9:24am 20 22 mph 1014.3mb 83f 84f
9:18am 20 22 mph 1014.2mb 83f 84f
9:12am 18 21 mph 1014.3mb 83f 84f
9:06am 17 21 mph 1014.4mb 83f 83f
9:00am 18 21 mph 1014.4mb 83f 83f
8:54am 20 21 mph 1014.6mb 83f 83f
8:48am 17 20 mph 1014.5mb 83f 83f
8:42am 18 22 mph 1014.5mb 83f 83f
8:36am 16 18 mph 1014.5mb 83f 83f
8:30am 17 20 mph 1014.3mb 82f 83f
8:24am 18 23 mph 1014.2mb 82f 83f
8:18am 21 24 mph 1014.2mb 82f 83f
8:12am 15 24 mph 1014.3mb 83f 80f
8:06am 26 33 mph 1014.4mb 83f 79f
8:00am 24 28 mph 1014mb 83f 83f
7:54am 21 24 mph 1013.9mb 83f 83f
7:48am 21 24 mph 1013.8mb 83f 83f
7:42am 21 23 mph 1013.9mb 83f 83f
7:36am 17 20 mph 1013.9mb 83f 83f
7:30am 17 23 mph 1014mb 83f 83f
7:24am 21 23 mph 1014.1mb 83f 83f
7:18am 18 21 mph 1014mb 83f 83f
7:12am 18 21 mph 1014mb 83f 83f
7:06am 18 20 mph 1013.9mb 83f 83f
7:00am 17 20 mph 1014mb 83f 83f
6:54am 17 20 mph 1014mb 83f 83f
6:48am 18 21 mph 1013.9mb 83f 83f
6:42am 16 21 mph 1013.8mb 83f 83f
6:36am 17 20 mph 1013.8mb 83f 83f
6:30am 16 20 mph 1013.9mb 83f 83f
6:24am 17 18 mph 1013.8mb 83f 83f
6:18am 17 20 mph 1013.7mb 83f 83f
6:12am 17 20 mph 1013.7mb 83f 83f
6:06am 17 21 mph 1013.6mb 83f 83f
6:00am 16 20 mph 1013.6mb 83f 83f
5:54am 11 14 mph 1013.7mb 83f 81f
5:48am 11 14 mph 1013.7mb 83f 81f
5:42am 13 16 mph 1013.7mb 83f 81f
5:36am 14 17 mph 1013.5mb 83f 81f
5:30am 14 15 mph 1013.5mb 83f 81f
5:24am 11 17 mph 1013.7mb 83f 80f
5:18am 14 17 mph 1013.8mb 83f 80f
5:12am 16 20 mph 1013.8mb 83f 80f
5:06am 18 20 mph 1013.7mb 83f 80f
5:00am 16 17 mph 1013.8mb 83f 79f
4:54am 15 21 mph 1013.8mb 83f 77f
4:48am 20 22 mph 1014mb 83f 77f
4:42am 18 24 mph 1013.9mb 83f 78f
4:36am 22 29 mph 1014mb 83f 78f
4:30am 22 25 mph 1014.1mb 83f 80f
4:24am 22 23 mph 1013.9mb 83f 80f
4:18am 21 23 mph 1013.9mb 83f 80f
4:12am 20 24 mph 1013.9mb 83f 82f
4:06am 22 24 mph 1013.8mb 83f 83f
4:00am 21 23 mph 1013.9mb 83f 83f
3:54am 21 22 mph 1014.1mb 83f 83f
3:48am 22 24 mph 1014.1mb 83f 83f
3:42am 22 23 mph 1014.1mb 83f 83f
3:36am 18 21 mph 1014.2mb 83f 83f
3:30am 18 22 mph 1014.3mb 83f 83f
3:24am 20 22 mph 1014.4mb 83f 83f
3:18am 17 21 mph 1014.5mb 83f 83f
3:12am 18 21 mph 1014.5mb 83f 83f
3:06am 20 22 mph 1014.6mb 83f 83f
3:00am 18 20 mph 1014.6mb 83f 83f
2:54am 17 18 mph 1014.6mb 83f 83f
2:48am  -  mph 1014.7mb 83f -
2:42am  -  mph 1014.7mb 83f 83f
2:36am  -  mph 1014.7mb 83f 83f
2:30am 15 17 mph 1014.7mb 83f 83f
2:24am 15 18 mph 1014.8mb 83f 83f
2:18am 16 18 mph 1014.8mb 83f 82f
2:12am 16 20 mph 1014.8mb 83f 82f
2:00am 20 22 mph 1014.9mb 83f 83f
1:54am 20 23 mph 1015mb 83f 83f
1:48am 20 22 mph 1015.1mb 83f 83f
1:42am 22 23 mph 1015.2mb 83f 83f
1:36am 20 24 mph 1015.2mb 83f 83f
1:30am 22 24 mph 1015.2mb 83f 83f
1:24am 21 23 mph 1015.2mb 83f 83f
1:18am 22 24 mph 1015.3mb 83f 83f
1:12am 21 25 mph 1015.3mb 83f 83f
1:06am 22 25 mph 1015.2mb 83f 83f
1:00am 21 23 mph 1015.2mb 83f 83f
12:54am 18 21 mph 1015.2mb 83f 83f
12:48am 16 21 mph 1015.2mb 83f 83f
12:42am 16 17 mph 1015.2mb 83f 83f
12:30am 20 23 mph 1015.4mb 83f 83f
12:24am 20 23 mph 1015.4mb 83f 83f
12:18am 18 22 mph 1015.5mb 84f 83f
12:12am 18 21 mph 1015.5mb 84f 83f
12:06am 18 21 mph 1015.6mb 84f 82f
12:00am 17 21 mph 1015.5mb 84f 82f
Fri 07/31 11:54pm 17 20 mph 1015.5mb 84f 82f
11:48pm 18 20 mph 1015.5mb 84f 82f
11:42pm 18 21 mph 1015.4mb 84f 82f
11:36pm 18 21 mph 1015.4mb 84f 82f
11:30pm 18 22 mph 1015.4mb 84f 82f
11:24pm 20 23 mph 1015.4mb 84f 82f
11:18pm 22 24 mph 1015.3mb 84f 82f
11:12pm 10 13 mph 1015.3mb 84f 81f
11:06pm 9 13 mph 1015.4mb 84f 81f
11:00pm 9 13 mph 1015.4mb 84f 81f
10:54pm 9 14 mph 1015.4mb 84f 81f
10:48pm 10 13 mph 1015.5mb 84f 80f
10:42pm 10 14 mph 1015.6mb 84f 81f
10:36pm 11 14 mph 1015.7mb 84f 81f
10:30pm 9 14 mph 1015.7mb 84f 81f
10:24pm 13 16 mph 1015.7mb 84f 81f
10:18pm 14 16 mph 1015.7mb 84f 81f
10:12pm 14 16 mph 1015.7mb 84f 81f
10:06pm 14 16 mph 1015.6mb 84f 81f
10:00pm 14 18 mph 1015.5mb 84f 81f
9:54pm 16 18 mph 1015.5mb 84f 82f
9:48pm 15 16 mph 1015.4mb 84f 82f
9:42pm 14 17 mph 1015.4mb 84f 82f
9:36pm 14 18 mph 1015.2mb 84f 82f
9:30pm 16 20 mph 1015.1mb 84f 82f
9:24pm 15 21 mph 1015mb 84f 82f
9:18pm 20 21 mph 1014.9mb 84f 82f
9:12pm 17 20 mph 1014.8mb 84f 82f
9:06pm 17 20 mph 1014.9mb 84f 82f
9:00pm 17 21 mph 1014.9mb 84f 82f
8:54pm 17 21 mph 1014.8mb 84f 82f
8:48pm 20 21 mph 1014.9mb 84f 82f
8:42pm 17 21 mph 1014.8mb 84f 82f
8:36pm 18 22 mph 1014.8mb 84f 82f
8:30pm 20 22 mph 1014.8mb 84f 82f
8:24pm 20 24 mph 1014.7mb 84f 82f
8:18pm 22 24 mph 1014.6mb 84f 82f
8:12pm 18 22 mph 1014.6mb 84f 81f
8:06pm 21 23 mph 1014.5mb 84f 81f
8:00pm 21 26 mph 1014.4mb 84f 81f
7:54pm 23 26 mph 1014.2mb 84f 81f
7:48pm 23 25 mph 1014.2mb 84f 81f
7:42pm 22 24 mph 1014.1mb 84f 80f
7:36pm 21 24 mph 1014mb 84f 80f
7:00pm 25 31 mph 1014mb 84f 79f
6:48pm 24 29 mph 1014.1mb 84f 80f
6:42pm 25 34 mph 1014.2mb 84f 80f
6:36pm 25 31 mph 1014.2mb 84f 81f
6:30pm 26 30 mph 1014.2mb 84f 82f
6:24pm 21 23 mph 1014.3mb 84f 82f
6:18pm 16 18 mph 1014.3mb 84f 82f
6:12pm 16 20 mph 1014.3mb 84f 82f
6:06pm 14 16 mph 1014.3mb 84f 82f
6:00pm 14 16 mph 1014.3mb 84f 81f
5:54pm 15 20 mph 1014.3mb 84f 81f
5:48pm 16 20 mph 1014.3mb 84f 81f
5:42pm 17 22 mph 1014.2mb 84f 81f
5:36pm 16 18 mph 1014.2mb 84f 80f
5:30pm 13 18 mph 1014.3mb 84f 80f
5:24pm 17 20 mph 1014.3mb 84f 80f
5:18pm 18 23 mph 1014.4mb 84f 80f
5:12pm 23 25 mph 1014.5mb 84f 79f
5:06pm 22 25 mph 1014.6mb 84f 79f
5:00pm 18 22 mph 1014.6mb 84f 79f
4:54pm 20 22 mph 1014.6mb 84f 79f
4:48pm 20 22 mph 1014.5mb 84f 79f
4:42pm 21 24 mph 1014.5mb 84f 79f
4:36pm 22 25 mph 1014.7mb 84f 79f
4:30pm 23 30 mph 1014.6mb 84f 79f
4:24pm 20 29 mph 1014.6mb 84f 80f
4:18pm 21 23 mph 1014.4mb 84f 83f
4:12pm 18 21 mph 1014.5mb 84f 83f
4:06pm 20 22 mph 1014.5mb 84f 83f
4:00pm 17 21 mph 1014.5mb 84f 83f
3:54pm 18 21 mph 1014.5mb 84f 83f
3:48pm 16 22 mph 1014.6mb 84f 83f
3:42pm 18 22 mph 1014.7mb 84f 83f
3:36pm 20 22 mph 1014.7mb 84f 83f
3:30pm 21 22 mph 1014.9mb 84f 83f
3:24pm 17 21 mph 1015mb 84f 83f
3:18pm 16 21 mph 1015mb 84f 83f
3:12pm 21 22 mph 1015mb 84f 82f
3:06pm 18 21 mph 1015.1mb 84f 82f
3:00pm 20 22 mph 1015.2mb 84f 82f
2:54pm 20 22 mph 1015.4mb 84f 82f
2:48pm 18 22 mph 1015.4mb 84f 82f
2:42pm 20 21 mph 1015.4mb 84f 82f
2:36pm 16 21 mph 1015.5mb 84f 82f
2:30pm 16 18 mph 1015.4mb 84f 82f
2:24pm 16 17 mph 1015.6mb 84f 82f
2:18pm 15 18 mph 1015.7mb 84f 81f
2:12pm 16 18 mph 1015.7mb 84f 81f
2:06pm 18 22 mph 1015.8mb 84f 81f
2:00pm 20 24 mph 1015.9mb 84f 81f
1:54pm 20 24 mph 1016mb 84f 81f
1:48pm 22 25 mph 1016.1mb 84f 80f
1:42pm 22 24 mph 1016.1mb 84f 80f
1:36pm 18 22 mph 1016.2mb 84f 79f
1:30pm 18 25 mph 1016.1mb 84f 79f
1:24pm 16 31 mph 1016mb 84f 78f
1:18pm 23 29 mph 1015.9mb 84f 80f
1:12pm 14 17 mph 1015.9mb 84f 82f
1:06pm 11 14 mph 1015.8mb 84f 82f
1:00pm 10 13 mph 1016.1mb 84f 82f
12:54pm 11 13 mph 1016.1mb 84f 81f
12:48pm 9 11 mph 1016.2mb 84f 80f
12:42pm 11 15 mph 1016.1mb 84f 80f
12:36pm 14 16 mph 1016mb 84f 80f
12:30pm 14 17 mph 1016mb 84f 80f
12:24pm 16 18 mph 1016mb 84f 80f
12:18pm 11 16 mph 1016.1mb 84f 79f
12:12pm 14 17 mph 1016.3mb 84f 78f
12:06pm 16 23 mph 1016.3mb 84f 77f
12:00pm 22 26 mph 1016.2mb 84f 76f
11:54am 28 39 mph 1016.2mb 84f 76f
11:48am 30 37 mph 1015.9mb 84f 78f
11:42am 22 34 mph 1015.9mb 84f 81f
11:36am 15 18 mph 1016mb 84f 83f
11:30am 17 20 mph 1016mb 84f 83f
11:24am 14 16 mph 1015.9mb 84f 83f
11:18am 15 18 mph 1015.9mb 84f 82f
11:12am 17 20 mph 1016mb 84f 83f
11:06am 17 20 mph 1015.9mb 84f 83f
11:00am 16 21 mph 1015.9mb 84f 83f
10:54am 20 23 mph 1015.8mb 84f 83f
10:48am 20 23 mph 1015.8mb 84f 83f
10:42am 21 23 mph 1015.8mb 84f 83f
10:36am 20 23 mph 1015.7mb 84f 83f
10:30am 22 24 mph 1015.7mb 84f 83f
10:24am 20 23 mph 1015.7mb 84f 83f
10:18am 21 25 mph 1015.7mb 84f 83f
10:12am 22 24 mph 1015.8mb 84f 83f
10:06am 20 22 mph 1015.8mb 84f 83f
10:00am 23 25 mph 1015.8mb 84f 83f
9:54am 20 23 mph 1015.8mb 84f 83f
9:48am 20 22 mph 1015.9mb 84f 83f
9:42am 18 24 mph 1015.8mb 83f 82f
9:36am 18 23 mph 1015.9mb 83f 82f
9:30am 20 22 mph 1015.9mb 83f 82f
9:24am 21 24 mph 1015.8mb 83f 82f
9:12am 23 24 mph 1015.7mb 83f 82f
9:06am 22 26 mph 1015.7mb 83f 81f
9:00am 23 26 mph 1015.8mb 83f 81f
8:48am 26 29 mph 1015.7mb 83f 80f
8:42am 24 29 mph 1015.6mb 84f 81f
8:36am 20 23 mph 1015.4mb 84f 83f
8:30am 20 22 mph 1015.2mb 83f 83f
8:24am 20 22 mph 1015.3mb 84f 84f
8:18am 17 20 mph 1015.2mb 84f 84f
8:12am 17 20 mph 1015.2mb 84f 84f
8:06am 18 21 mph 1015.2mb 83f 84f
8:00am 17 21 mph 1015.1mb 84f 84f
7:54am 18 21 mph 1014.9mb 84f 83f
7:48am 18 21 mph 1014.8mb 84f 83f
7:42am 17 18 mph 1014.8mb 84f 83f
7:36am 16 18 mph 1014.8mb 83f 83f
7:30am 16 20 mph 1014.8mb 83f 83f
7:24am 16 18 mph 1014.8mb 83f 83f
7:18am 17 20 mph 1014.7mb 83f 83f
7:12am 18 20 mph 1014.7mb 83f 83f
7:06am 16 18 mph 1014.7mb 83f 83f
7:00am 16 20 mph 1014.7mb 83f 83f
6:54am 16 18 mph 1014.8mb 84f 83f
6:48am 14 17 mph 1014.7mb 84f 83f
6:42am 15 17 mph 1014.6mb 84f 83f
6:36am 14 16 mph 1014.6mb 84f 83f
6:30am 16 17 mph 1014.6mb 84f 83f
6:24am 14 16 mph 1014.5mb 84f 83f
6:18am 14 16 mph 1014.3mb 84f 83f
6:12am 13 15 mph 1014.3mb 84f 83f
6:06am 14 16 mph 1014.3mb 84f 83f
6:00am 13 14 mph 1014.3mb 84f 83f
5:54am 13 15 mph 1014.3mb 84f 83f
5:48am 14 16 mph 1014.3mb 84f 83f
5:42am 15 16 mph 1014.3mb 84f 83f
5:36am 16
mph
1014.3mb 84f 83f
5:30am 14 16 mph 1014.2mb 84f 83f
5:24am 15 17 mph 1014.2mb 84f 83f
5:18am 14 17 mph 1014.1mb 84f 83f
5:12am 14 17 mph 1014.1mb 84f 83f
5:06am 17 18 mph 1014.1mb 84f 83f
5:00am 17 20 mph 1014.1mb 84f 83f
4:54am 15 17 mph 1014.1mb 84f 83f
4:48am 16 17 mph 1014.1mb 84f 83f
4:42am 15 17 mph 1014.1mb 84f 83f
4:36am 16 17 mph 1014.2mb 84f 83f
4:30am 15 18 mph 1014.2mb 84f 83f
4:18am 15 18 mph 1014.2mb 84f 83f
4:12am 15 17 mph 1014.2mb 84f 83f
4:06am 15 17 mph 1014.3mb 84f 83f
4:00am 13 16 mph 1014.3mb 84f 82f
3:54am 9 11 mph 1014.4mb 84f 82f
3:48am 9 11 mph 1014.5mb 84f 81f
3:42am 10 14 mph 1014.4mb 84f 81f
3:36am 11 14 mph 1014.5mb 84f 82f
3:30am 13 15 mph 1014.5mb 84f 82f
3:24am 14 18 mph 1014.5mb 84f 81f
3:18am 17 21 mph 1014.5mb 84f 81f
3:12am 18 21 mph 1014.5mb 84f 82f
3:06am 16 20 mph 1014.5mb 84f 82f
3:00am 16 18 mph 1014.5mb 84f 83f
2:54am 13 15 mph 1014.5mb 84f 83f
2:48am 16 17 mph 1014.5mb 84f 83f
2:42am 15 16 mph 1014.6mb 84f 83f
2:36am 14 16 mph 1014.6mb 84f 83f
2:30am 15 17 mph 1014.6mb 84f 83f
2:24am 16 17 mph 1014.7mb 84f 83f
2:18am 14 16 mph 1014.7mb 84f 83f
2:12am 14 15 mph 1014.8mb 84f 83f
2:06am 13 15 mph 1015mb 84f 83f
2:00am 11 14 mph 1015mb 84f 83f
1:54am 11 13 mph 1015.1mb 84f 83f
1:48am 10 11 mph 1015.1mb 84f 83f
1:42am 9 10 mph 1015.2mb 84f 83f
1:36am 9 10 mph 1015.3mb 84f 83f
1:30am 9 10 mph 1015.4mb 84f 83f
1:24am 10 13 mph 1015.5mb 84f 83f
1:18am 11 13 mph 1015.5mb 84f 83f
1:12am 11 14 mph 1015.5mb 84f 83f
1:06am 13 14 mph 1015.6mb 84f 83f
1:00am 11
mph
1015.6mb 85f 83f
12:54am 6 10 mph 1015.8mb 85f 82f
12:48am 7 9 mph 1015.9mb 85f 81f
12:42am 5 8 mph 1015.8mb 85f 80f
12:36am 7 10 mph 1015.9mb 85f 80f
12:30am 8 11 mph 1015.9mb 85f 80f
12:24am 6 7 mph 1015.9mb 85f 80f
12:18am 3 5 mph 1015.8mb 85f 80f
12:12am 3 6 mph 1016mb 85f 80f
12:06am 5 6 mph 1016mb 85f 80f
12:00am 5 6 mph 1016.1mb 85f 80f
Thu 07/30 11:54pm 3 5 mph 1016.1mb 85f 80f
11:48pm 5 6 mph 1016.2mb 85f 80f
11:42pm 6
mph
1016.1mb 85f 80f
11:36pm 5
mph
1016.1mb 85f 80f
11:30pm 5 6 mph 1016.1mb 85f 81f
11:24pm 5 6 mph 1016mb 85f 81f
11:18pm 6 7 mph 1015.9mb 85f 81f
11:12pm 6 7 mph 1015.9mb 85f 81f
11:06pm 6 7 mph 1015.9mb 85f 81f
11:00pm 6
mph
1016mb 85f 81f
10:54pm 5 6 mph 1016.1mb 85f 81f
10:48pm 6 9 mph 1016mb 85f 82f
10:42pm 7 9 mph 1015.9mb 85f 82f
10:36pm 7 10 mph 1015.9mb 85f 82f
10:30pm 9 11 mph 1015.8mb 85f 82f
10:24pm 7 8 mph 1015.6mb 85f 82f
10:18pm 7 9 mph 1015.4mb 85f 81f
10:12pm 9 10 mph 1015.4mb 85f 81f
10:06pm 9 11 mph 1015.3mb 85f 80f
10:00pm 10 13 mph 1015.2mb 85f 80f
9:54pm 13 15 mph 1015.2mb 85f 81f
9:48pm 13 15 mph 1015.1mb 85f 81f
9:42pm 13 14 mph 1015.2mb 85f 80f
9:36pm 7 9 mph 1015.3mb 85f 80f
9:30pm 5 7 mph 1015.2mb 85f 79f
9:24pm 7 8 mph 1015.2mb 85f 79f
9:18pm 5 7 mph 1015.1mb 85f 78f
9:12pm 6 8 mph 1015.2mb 85f 78f
9:06pm 6 8 mph 1015.2mb 85f 78f
9:00pm 9 15 mph 1015.1mb 85f 78f
8:54pm 7 8 mph 1014.9mb 85f 80f
8:48pm 3 6 mph 1014.9mb 85f 80f
8:42pm 6 7 mph 1015.1mb 85f 80f
8:36pm 7 8 mph 1015mb 85f 79f
8:30pm 7 13 mph 1015.2mb 85f 78f
8:24pm 11 14 mph 1015.2mb 85f 78f
8:18pm 13 18 mph 1015.3mb 85f 78f
8:12pm 17 20 mph 1015.4mb 85f 76f
8:06pm 11 15 mph 1015.6mb 85f 78f
8:00pm 11 23 mph 1015.5mb 85f 78f
7:54pm 24 32 mph 1015.3mb 85f 78f
7:48pm 17 22 mph 1015.1mb 85f 79f
7:42pm 14 18 mph 1014.9mb 85f 79f
7:36pm 9
mph
1014.7mb 85f 79f
7:30pm 6 9 mph 1014.5mb 85f 79f
7:24pm 9 13 mph 1014.3mb 85f 78f
7:12pm 2 6 mph 1014.3mb 85f 80f
7:06pm 7 11 mph 1014.4mb 85f 79f
7:00pm 8 11 mph 1014.5mb 85f 79f
6:54pm 9 14 mph 1014.5mb 85f 79f
6:48pm 3 9 mph 1014.6mb 85f 78f
6:42pm 6 8 mph 1014.5mb 86f 78f
6:36pm 6 7 mph 1014.5mb 86f 78f
6:30pm 7 8 mph 1014.4mb 85f 78f
6:24pm 7 9 mph 1014.5mb 85f 78f
6:18pm 8 9 mph 1014.8mb 85f 78f
6:12pm 6 7 mph 1014.8mb 85f 78f
6:06pm 8 17 mph 1014.8mb 85f 79f
6:00pm 15 25 mph 1014.5mb 85f 79f
5:54pm 22 24 mph 1014.4mb 85f 80f
5:48pm 21 24 mph 1014.5mb 85f 78f
5:42pm 18 26 mph 1014.8mb 85f 79f
5:36pm 13 17 mph 1014.6mb 85f 82f
5:30pm 13 16 mph 1014.4mb 85f 82f
5:24pm 15 17 mph 1014.2mb 85f 83f
5:18pm 10 11 mph 1014.3mb 85f 84f
5:12pm 10 14 mph 1014.4mb 85f 84f
5:06pm 14 15 mph 1014.5mb 84f 84f
5:00pm 11 15 mph 1014.3mb 84f 84f
4:54pm 14 15 mph 1014.4mb 84f 84f
4:48pm 11 14 mph 1014.4mb 84f 85f
4:42pm 13 14 mph 1014.3mb 84f 85f
4:36pm 13 14 mph 1014.4mb 84f 85f
4:30pm 13 14 mph 1014.6mb 84f 85f
4:24pm 13 14 mph 1014.6mb 84f 85f
4:18pm 11 14 mph 1014.5mb 84f 84f
4:12pm 13 14 mph 1014.6mb 84f 84f
4:06pm 13 15 mph 1014.6mb 84f 84f
4:00pm 13 14 mph 1014.6mb 84f 84f
3:54pm 13 14 mph 1014.6mb 84f 85f
3:48pm 11 13 mph - - -
3:42pm 10 11 mph 1014.8mb 84f 85f
3:36pm 11 13 mph 1014.8mb 84f 85f
3:30pm 10 11 mph 1014.9mb 84f 85f
3:24pm 10 13 mph 1015mb 84f 84f
3:18pm 11 14 mph 1015mb 84f 84f
3:12pm 14 16 mph 1014.9mb 84f 84f
3:06pm 14 16 mph 1015mb 84f 84f
3:00pm 13 16 mph 1015.2mb 84f 84f
2:54pm 14 16 mph 1015.1mb 84f 84f
2:48pm 15 17 mph 1015.2mb 84f 84f
2:42pm 14 17 mph 1015.3mb 84f 84f
2:36pm 14 15 mph 1015.4mb 84f 84f
2:30pm 14 15 mph 1015.5mb 84f 84f
2:24pm 11 15 mph 1015.5mb 84f 84f
2:18pm 13 14 mph 1015.6mb 84f 84f
2:12pm 11 13 mph 1015.6mb 84f 84f
2:06pm 11 14 mph 1015.8mb 84f 84f
2:00pm 13 14 mph 1015.9mb 84f 84f
1:54pm 11 14 mph 1016mb 84f 84f
1:48pm 11 13 mph 1016mb 84f 84f
1:42pm 11 14 mph 1016mb 84f 84f
1:36pm 11
mph
1016.1mb 84f 83f
1:30pm 9 10 mph 1016mb 84f 83f
1:24pm 9
mph
1016mb 84f 84f
1:18pm 6 9 mph 1016.2mb 84f 84f
1:12pm 9 11 mph 1016.1mb 84f 83f
1:06pm 10 11 mph 1016.1mb 84f 83f
1:00pm 11 15 mph 1016.1mb 84f 83f
12:54pm 14 16 mph 1016mb 84f 83f
12:48pm 15 16 mph 1016mb 84f 83f
12:42pm 15 17 mph 1016.1mb 84f 82f
12:36pm 15
mph
1016.2mb 84f 83f
12:30pm 11 13 mph 1016.3mb 83f 83f
12:24pm 9 10 mph 1016.3mb 83f 83f
12:18pm 8 9 mph 1016.5mb 83f 83f
12:12pm 8 10 mph 1016.6mb 83f 83f
12:06pm 10 11 mph 1016.7mb 83f 83f
12:00pm 11 13 mph 1016.6mb - -
11:54am 11 14 mph 1016.5mb 83f 83f
11:42am 9 13 mph 1016.7mb 83f 83f
11:30am 9 10 mph 1016.7mb 83f 83f
11:24am 10 14 mph 1016.8mb 83f 83f
11:18am 13 15 mph 1016.8mb 83f 83f
11:06am 10 13 mph 1016.7mb 83f 83f
11:00am 10 11 mph 1016.8mb 83f 83f
10:54am 10 13 mph 1016.8mb 83f 83f
10:48am 10 11 mph 1016.7mb 83f 83f
10:42am 10 11 mph 1016.6mb 83f 83f
10:36am 10 11 mph 1016.7mb 83f 83f
10:30am 11
mph
1016.7mb 83f 83f
10:24am 10 11 mph 1016.5mb 83f 83f
10:18am 10 11 mph 1016.4mb 83f 83f
10:12am 9 10 mph 1016.3mb 83f 83f
10:06am 9 10 mph 1016.3mb 83f 83f
10:00am 3 5 mph - - -
9:54am 2 3 mph 1016.1mb 83f 83f
9:48am 2 3 mph 1016.1mb 83f 83f
9:42am 3 6 mph 1016.1mb 83f 82f
9:30am 6
mph
1016.1mb 83f 82f
9:24am 3 5 mph 1016.1mb 83f 82f
9:12am 3 5 mph 1016mb 83f 83f
9:06am 3 7 mph 1015.9mb 83f 83f
9:00am 6
mph
1016mb 83f 83f
8:54am 3 5 mph 1016mb 83f 83f
8:48am 3 5 mph 1015.9mb 83f 83f
8:42am  -  mph - - 83f
8:36am  -  mph - - 83f
8:24am  -  mph - - 83f
8:18am  -  mph - - 83f
8:12am  -  mph - - 83f
8:06am  -  mph - - 83f
8:00am  -  mph - - 83f
7:54am  -  mph - - 83f
7:48am  -  mph - - 83f